sensor_id;sensor_type;location;lat;lon;timestamp;temperature;humidity
6379;DHT22;3222;48.858;10.128;2023-10-13T00:00:33;17.30;99.90
6379;DHT22;3222;48.858;10.128;2023-10-13T00:03:02;17.30;99.90
6379;DHT22;3222;48.858;10.128;2023-10-13T00:05:29;17.30;99.90
6379;DHT22;3222;48.858;10.128;2023-10-13T00:07:59;17.20;99.90
6379;DHT22;3222;48.858;10.128;2023-10-13T00:10:31;17.20;99.90
6379;DHT22;3222;48.858;10.128;2023-10-13T00:12:59;17.20;99.90
6379;DHT22;3222;48.858;10.128;2023-10-13T00:15:46;17.20;99.90
6379;DHT22;3222;48.858;10.128;2023-10-13T00:18:29;17.10;99.90
6379;DHT22;3222;48.858;10.128;2023-10-13T00:21:08;17.10;99.90
6379;DHT22;3222;48.858;10.128;2023-10-13T00:23:53;17.10;99.90
6379;DHT22;3222;48.858;10.128;2023-10-13T00:26:23;17.00;99.90
6379;DHT22;3222;48.858;10.128;2023-10-13T00:28:55;17.00;99.90
6379;DHT22;3222;48.858;10.128;2023-10-13T00:31:38;17.00;99.90
6379;DHT22;3222;48.858;10.128;2023-10-13T00:34:06;17.00;99.90
6379;DHT22;3222;48.858;10.128;2023-10-13T00:36:38;17.00;99.90
6379;DHT22;3222;48.858;10.128;2023-10-13T00:39:17;17.00;99.90
6379;DHT22;3222;48.858;10.128;2023-10-13T00:41:43;16.90;99.90
6379;DHT22;3222;48.858;10.128;2023-10-13T00:44:19;17.00;99.90
6379;DHT22;3222;48.858;10.128;2023-10-13T00:46:51;16.90;99.90
6379;DHT22;3222;48.858;10.128;2023-10-13T00:49:21;16.90;99.90
6379;DHT22;3222;48.858;10.128;2023-10-13T00:51:49;16.90;99.90
6379;DHT22;3222;48.858;10.128;2023-10-13T00:54:17;16.90;99.90
6379;DHT22;3222;48.858;10.128;2023-10-13T00:56:46;16.90;99.90
6379;DHT22;3222;48.858;10.128;2023-10-13T00:59:17;16.90;99.90
6379;DHT22;3222;48.858;10.128;2023-10-13T01:01:43;16.80;99.90
6379;DHT22;3222;48.858;10.128;2023-10-13T01:04:11;16.90;99.90
6379;DHT22;3222;48.858;10.128;2023-10-13T01:06:39;16.90;99.90
6379;DHT22;3222;48.858;10.128;2023-10-13T01:09:09;16.90;99.90
6379;DHT22;3222;48.858;10.128;2023-10-13T01:11:46;17.00;99.90
6379;DHT22;3222;48.858;10.128;2023-10-13T01:14:14;17.00;99.90
6379;DHT22;3222;48.858;10.128;2023-10-13T01:16:44;16.90;99.90
6379;DHT22;3222;48.858;10.128;2023-10-13T01:19:14;16.90;99.90
6379;DHT22;3222;48.858;10.128;2023-10-13T01:21:43;16.90;99.90
6379;DHT22;3222;48.858;10.128;2023-10-13T01:24:14;16.80;99.90
6379;DHT22;3222;48.858;10.128;2023-10-13T01:26:44;16.80;99.90
6379;DHT22;3222;48.858;10.128;2023-10-13T01:29:10;16.80;99.90
6379;DHT22;3222;48.858;10.128;2023-10-13T01:31:43;16.80;99.90
6379;DHT22;3222;48.858;10.128;2023-10-13T01:34:16;16.70;99.90
6379;DHT22;3222;48.858;10.128;2023-10-13T01:36:51;16.70;99.90
6379;DHT22;3222;48.858;10.128;2023-10-13T01:39:18;16.70;99.90
6379;DHT22;3222;48.858;10.128;2023-10-13T01:41:45;16.70;99.90
6379;DHT22;3222;48.858;10.128;2023-10-13T01:44:10;16.70;99.90
6379;DHT22;3222;48.858;10.128;2023-10-13T01:46:42;16.80;99.90
6379;DHT22;3222;48.858;10.128;2023-10-13T01:49:08;16.80;99.90
6379;DHT22;3222;48.858;10.128;2023-10-13T01:51:34;16.80;99.90
6379;DHT22;3222;48.858;10.128;2023-10-13T01:54:00;16.80;99.90
6379;DHT22;3222;48.858;10.128;2023-10-13T01:56:28;16.80;99.90
6379;DHT22;3222;48.858;10.128;2023-10-13T01:58:56;16.70;99.90
6379;DHT22;3222;48.858;10.128;2023-10-13T02:01:22;16.70;99.70
6379;DHT22;3222;48.858;10.128;2023-10-13T02:03:55;16.70;99.90
6379;DHT22;3222;48.858;10.128;2023-10-13T02:06:31;16.70;99.90
6379;DHT22;3222;48.858;10.128;2023-10-13T02:09:07;16.70;99.90
6379;DHT22;3222;48.858;10.128;2023-10-13T02:11:43;16.70;99.80
6379;DHT22;3222;48.858;10.128;2023-10-13T02:14:12;16.70;99.90
6379;DHT22;3222;48.858;10.128;2023-10-13T02:16:41;16.70;99.90
6379;DHT22;3222;48.858;10.128;2023-10-13T02:19:08;16.70;99.90
6379;DHT22;3222;48.858;10.128;2023-10-13T02:21:35;16.70;99.90
6379;DHT22;3222;48.858;10.128;2023-10-13T02:24:09;16.70;99.80
6379;DHT22;3222;48.858;10.128;2023-10-13T02:26:44;16.70;99.70
6379;DHT22;3222;48.858;10.128;2023-10-13T02:29:10;16.60;99.80
6379;DHT22;3222;48.858;10.128;2023-10-13T02:31:43;16.60;99.60
6379;DHT22;3222;48.858;10.128;2023-10-13T02:34:19;16.60;99.70
6379;DHT22;3222;48.858;10.128;2023-10-13T02:36:48;16.50;99.80
6379;DHT22;3222;48.858;10.128;2023-10-13T02:39:17;16.50;99.80
6379;DHT22;3222;48.858;10.128;2023-10-13T02:41:50;16.40;99.80
6379;DHT22;3222;48.858;10.128;2023-10-13T02:44:16;16.40;99.80
6379;DHT22;3222;48.858;10.128;2023-10-13T02:46:57;16.30;99.90
6379;DHT22;3222;48.858;10.128;2023-10-13T02:49:24;16.30;99.90
6379;DHT22;3222;48.858;10.128;2023-10-13T02:51:51;16.30;99.90
6379;DHT22;3222;48.858;10.128;2023-10-13T02:54:18;16.30;99.90
6379;DHT22;3222;48.858;10.128;2023-10-13T02:56:44;16.20;99.90
6379;DHT22;3222;48.858;10.128;2023-10-13T02:59:26;16.20;99.90
6379;DHT22;3222;48.858;10.128;2023-10-13T03:02:21;16.20;99.90
6379;DHT22;3222;48.858;10.128;2023-10-13T03:04:56;16.20;99.90
6379;DHT22;3222;48.858;10.128;2023-10-13T03:07:26;16.20;99.90
6379;DHT22;3222;48.858;10.128;2023-10-13T03:09:56;16.20;99.90
6379;DHT22;3222;48.858;10.128;2023-10-13T03:12:35;16.10;99.90
6379;DHT22;3222;48.858;10.128;2023-10-13T03:15:01;16.10;99.90
6379;DHT22;3222;48.858;10.128;2023-10-13T03:17:46;16.10;99.90
6379;DHT22;3222;48.858;10.128;2023-10-13T03:20:14;16.20;99.90
6379;DHT22;3222;48.858;10.128;2023-10-13T03:22:42;16.20;99.90
6379;DHT22;3222;48.858;10.128;2023-10-13T03:25:11;16.20;99.90
6379;DHT22;3222;48.858;10.128;2023-10-13T03:27:58;16.10;99.90
6379;DHT22;3222;48.858;10.128;2023-10-13T03:30:23;16.10;99.90
6379;DHT22;3222;48.858;10.128;2023-10-13T03:32:55;16.10;99.90
6379;DHT22;3222;48.858;10.128;2023-10-13T03:35:22;16.20;99.90
6379;DHT22;3222;48.858;10.128;2023-10-13T03:37:52;16.10;99.90
6379;DHT22;3222;48.858;10.128;2023-10-13T03:40:19;16.30;99.90
6379;DHT22;3222;48.858;10.128;2023-10-13T03:42:54;16.30;99.90
6379;DHT22;3222;48.858;10.128;2023-10-13T03:45:33;16.50;99.90
6379;DHT22;3222;48.858;10.128;2023-10-13T03:48:03;16.50;99.80
6379;DHT22;3222;48.858;10.128;2023-10-13T03:50:40;16.40;99.90
6379;DHT22;3222;48.858;10.128;2023-10-13T03:53:14;16.40;99.90
6379;DHT22;3222;48.858;10.128;2023-10-13T03:55:40;16.40;99.90
6379;DHT22;3222;48.858;10.128;2023-10-13T03:58:06;16.30;99.90
6379;DHT22;3222;48.858;10.128;2023-10-13T04:00:32;16.20;99.90
6379;DHT22;3222;48.858;10.128;2023-10-13T04:02:58;16.10;99.90
6379;DHT22;3222;48.858;10.128;2023-10-13T04:05:35;16.10;99.90
6379;DHT22;3222;48.858;10.128;2023-10-13T04:08:26;16.10;99.90
6379;DHT22;3222;48.858;10.128;2023-10-13T04:10:56;16.10;99.90
6379;DHT22;3222;48.858;10.128;2023-10-13T04:13:42;16.10;99.90
6379;DHT22;3222;48.858;10.128;2023-10-13T04:16:26;16.40;99.90
6379;DHT22;3222;48.858;10.128;2023-10-13T04:18:52;16.40;99.90
6379;DHT22;3222;48.858;10.128;2023-10-13T04:21:23;16.20;99.90
6379;DHT22;3222;48.858;10.128;2023-10-13T04:26:43;16.10;99.90
6379;DHT22;3222;48.858;10.128;2023-10-13T04:29:29;16.10;99.90
6379;DHT22;3222;48.858;10.128;2023-10-13T04:32:15;16.20;99.90
6379;DHT22;3222;48.858;10.128;2023-10-13T04:34:57;16.10;99.90
6379;DHT22;3222;48.858;10.128;2023-10-13T04:37:42;16.10;99.90
6379;DHT22;3222;48.858;10.128;2023-10-13T04:40:19;16.00;99.90
6379;DHT22;3222;48.858;10.128;2023-10-13T04:42:50;16.00;99.90
6379;DHT22;3222;48.858;10.128;2023-10-13T04:45:20;16.10;99.90
6379;DHT22;3222;48.858;10.128;2023-10-13T04:48:01;16.10;99.90
6379;DHT22;3222;48.858;10.128;2023-10-13T04:50:47;16.20;99.90
6379;DHT22;3222;48.858;10.128;2023-10-13T04:53:16;16.10;99.90
6379;DHT22;3222;48.858;10.128;2023-10-13T04:56:20;16.10;99.90
6379;DHT22;3222;48.858;10.128;2023-10-13T04:59:04;16.20;99.90
6379;DHT22;3222;48.858;10.128;2023-10-13T05:01:49;16.10;99.90
6379;DHT22;3222;48.858;10.128;2023-10-13T05:04:50;16.20;99.90
6379;DHT22;3222;48.858;10.128;2023-10-13T05:07:34;16.10;99.90
6379;DHT22;3222;48.858;10.128;2023-10-13T05:10:19;16.10;99.90
6379;DHT22;3222;48.858;10.128;2023-10-13T05:13:03;16.20;99.90
6379;DHT22;3222;48.858;10.128;2023-10-13T05:15:49;16.10;99.90
6379;DHT22;3222;48.858;10.128;2023-10-13T05:18:34;16.00;99.90
6379;DHT22;3222;48.858;10.128;2023-10-13T05:21:19;16.00;99.90
6379;DHT22;3222;48.858;10.128;2023-10-13T05:24:04;16.00;99.90
6379;DHT22;3222;48.858;10.128;2023-10-13T05:26:49;16.10;99.90
6379;DHT22;3222;48.858;10.128;2023-10-13T05:29:33;16.10;99.90
6379;DHT22;3222;48.858;10.128;2023-10-13T05:32:17;16.10;99.90
6379;DHT22;3222;48.858;10.128;2023-10-13T05:35:02;16.10;99.90
6379;DHT22;3222;48.858;10.128;2023-10-13T05:37:46;16.00;99.90
6379;DHT22;3222;48.858;10.128;2023-10-13T05:40:31;16.00;99.90
6379;DHT22;3222;48.858;10.128;2023-10-13T05:43:15;15.90;99.90
6379;DHT22;3222;48.858;10.128;2023-10-13T05:46:04;15.90;99.90
6379;DHT22;3222;48.858;10.128;2023-10-13T05:48:48;15.90;99.90
6379;DHT22;3222;48.858;10.128;2023-10-13T05:51:26;16.00;99.90
6379;DHT22;3222;48.858;10.128;2023-10-13T05:54:02;16.10;99.90
6379;DHT22;3222;48.858;10.128;2023-10-13T05:56:47;16.00;99.90
6379;DHT22;3222;48.858;10.128;2023-10-13T05:59:32;16.00;99.90
6379;DHT22;3222;48.858;10.128;2023-10-13T06:02:18;16.00;99.90
6379;DHT22;3222;48.858;10.128;2023-10-13T06:05:07;16.00;99.90
6379;DHT22;3222;48.858;10.128;2023-10-13T06:07:52;16.10;99.90
6379;DHT22;3222;48.858;10.128;2023-10-13T06:10:38;16.00;99.90
6379;DHT22;3222;48.858;10.128;2023-10-13T06:13:22;16.00;99.90
6379;DHT22;3222;48.858;10.128;2023-10-13T06:16:11;16.10;99.90
6379;DHT22;3222;48.858;10.128;2023-10-13T06:18:56;16.00;99.90
6379;DHT22;3222;48.858;10.128;2023-10-13T06:21:41;16.00;99.90
6379;DHT22;3222;48.858;10.128;2023-10-13T06:24:26;16.00;99.90
6379;DHT22;3222;48.858;10.128;2023-10-13T06:27:10;16.10;99.90
6379;DHT22;3222;48.858;10.128;2023-10-13T06:29:55;16.20;99.90
6379;DHT22;3222;48.858;10.128;2023-10-13T06:32:22;16.20;99.90
6379;DHT22;3222;48.858;10.128;2023-10-13T06:34:55;16.10;99.90
6379;DHT22;3222;48.858;10.128;2023-10-13T06:37:25;16.10;99.90
6379;DHT22;3222;48.858;10.128;2023-10-13T06:40:00;16.00;99.90
6379;DHT22;3222;48.858;10.128;2023-10-13T06:42:32;16.00;99.90
6379;DHT22;3222;48.858;10.128;2023-10-13T06:45:00;16.00;99.90
6379;DHT22;3222;48.858;10.128;2023-10-13T06:47:28;16.10;99.90
6379;DHT22;3222;48.858;10.128;2023-10-13T06:49:54;16.10;99.90
6379;DHT22;3222;48.858;10.128;2023-10-13T06:52:22;16.10;99.90
6379;DHT22;3222;48.858;10.128;2023-10-13T06:54:54;16.20;99.90
6379;DHT22;3222;48.858;10.128;2023-10-13T06:57:21;16.20;99.90
6379;DHT22;3222;48.858;10.128;2023-10-13T06:59:47;16.40;99.90
6379;DHT22;3222;48.858;10.128;2023-10-13T07:02:13;16.30;99.90
6379;DHT22;3222;48.858;10.128;2023-10-13T07:04:48;16.40;99.90
6379;DHT22;3222;48.858;10.128;2023-10-13T07:07:17;16.40;99.90
6379;DHT22;3222;48.858;10.128;2023-10-13T07:09:42;16.50;99.90
6379;DHT22;3222;48.858;10.128;2023-10-13T07:12:15;16.40;99.90
6379;DHT22;3222;48.858;10.128;2023-10-13T07:14:48;16.40;99.90
6379;DHT22;3222;48.858;10.128;2023-10-13T07:17:17;16.40;99.90
6379;DHT22;3222;48.858;10.128;2023-10-13T07:19:51;16.30;99.90
6379;DHT22;3222;48.858;10.128;2023-10-13T07:22:22;16.60;99.90
6379;DHT22;3222;48.858;10.128;2023-10-13T07:24:49;16.60;99.90
6379;DHT22;3222;48.858;10.128;2023-10-13T07:27:19;16.50;99.90
6379;DHT22;3222;48.858;10.128;2023-10-13T07:29:53;16.60;99.90
6379;DHT22;3222;48.858;10.128;2023-10-13T07:32:31;16.80;99.90
6379;DHT22;3222;48.858;10.128;2023-10-13T07:34:59;16.90;99.90
6379;DHT22;3222;48.858;10.128;2023-10-13T07:37:35;17.00;99.80
6379;DHT22;3222;48.858;10.128;2023-10-13T07:40:01;17.00;99.70
6379;DHT22;3222;48.858;10.128;2023-10-13T07:42:37;17.10;99.80
6379;DHT22;3222;48.858;10.128;2023-10-13T07:45:06;17.20;99.70
6379;DHT22;3222;48.858;10.128;2023-10-13T07:47:33;17.20;99.60
6379;DHT22;3222;48.858;10.128;2023-10-13T07:49:59;17.30;99.60
6379;DHT22;3222;48.858;10.128;2023-10-13T07:52:24;17.30;99.70
6379;DHT22;3222;48.858;10.128;2023-10-13T07:55:01;17.30;99.70
6379;DHT22;3222;48.858;10.128;2023-10-13T07:57:47;17.30;99.70
6379;DHT22;3222;48.858;10.128;2023-10-13T08:00:22;17.50;99.60
6379;DHT22;3222;48.858;10.128;2023-10-13T08:03:04;17.50;99.60
6379;DHT22;3222;48.858;10.128;2023-10-13T08:05:45;17.70;99.10
6379;DHT22;3222;48.858;10.128;2023-10-13T08:08:44;17.70;99.10
6379;DHT22;3222;48.858;10.128;2023-10-13T08:11:16;17.90;98.70
6379;DHT22;3222;48.858;10.128;2023-10-13T08:14:00;17.90;98.60
6379;DHT22;3222;48.858;10.128;2023-10-13T08:16:36;18.00;98.80
6379;DHT22;3222;48.858;10.128;2023-10-13T08:19:19;18.00;98.50
6379;DHT22;3222;48.858;10.128;2023-10-13T08:21:46;18.10;98.40
6379;DHT22;3222;48.858;10.128;2023-10-13T08:24:33;18.00;98.60
6379;DHT22;3222;48.858;10.128;2023-10-13T08:27:05;18.10;98.70
6379;DHT22;3222;48.858;10.128;2023-10-13T08:29:49;18.00;98.80
6379;DHT22;3222;48.858;10.128;2023-10-13T08:32:34;18.10;98.70
6379;DHT22;3222;48.858;10.128;2023-10-13T08:35:02;18.20;98.70
6379;DHT22;3222;48.858;10.128;2023-10-13T08:37:32;18.20;98.50
6379;DHT22;3222;48.858;10.128;2023-10-13T08:40:27;18.30;98.60
6379;DHT22;3222;48.858;10.128;2023-10-13T08:43:10;18.50;98.10
6379;DHT22;3222;48.858;10.128;2023-10-13T08:45:40;18.60;98.20
6379;DHT22;3222;48.858;10.128;2023-10-13T08:48:10;18.60;98.10
6379;DHT22;3222;48.858;10.128;2023-10-13T08:50:49;18.80;97.60
6379;DHT22;3222;48.858;10.128;2023-10-13T08:53:19;18.80;97.50
6379;DHT22;3222;48.858;10.128;2023-10-13T08:58:32;18.80;97.60
6379;DHT22;3222;48.858;10.128;2023-10-13T09:01:17;18.80;97.80
6379;DHT22;3222;48.858;10.128;2023-10-13T09:04:08;19.00;97.70
6379;DHT22;3222;48.858;10.128;2023-10-13T09:07:00;19.10;97.60
6379;DHT22;3222;48.858;10.128;2023-10-13T09:09:27;19.00;97.80
6379;DHT22;3222;48.858;10.128;2023-10-13T09:11:55;19.10;97.60
6379;DHT22;3222;48.858;10.128;2023-10-13T09:14:39;19.20;97.40
6379;DHT22;3222;48.858;10.128;2023-10-13T09:17:10;19.30;97.30
6379;DHT22;3222;48.858;10.128;2023-10-13T09:19:45;19.30;97.40
6379;DHT22;3222;48.858;10.128;2023-10-13T09:22:25;19.40;97.80
6379;DHT22;3222;48.858;10.128;2023-10-13T09:24:55;19.50;97.40
6379;DHT22;3222;48.858;10.128;2023-10-13T09:27:30;19.50;97.50
6379;DHT22;3222;48.858;10.128;2023-10-13T09:30:02;19.60;97.40
6379;DHT22;3222;48.858;10.128;2023-10-13T09:32:36;19.60;97.50
6379;DHT22;3222;48.858;10.128;2023-10-13T09:35:18;19.70;97.50
6379;DHT22;3222;48.858;10.128;2023-10-13T09:37:44;19.90;97.10
6379;DHT22;3222;48.858;10.128;2023-10-13T09:40:17;19.90;97.20
6379;DHT22;3222;48.858;10.128;2023-10-13T09:43:00;20.00;97.30
6379;DHT22;3222;48.858;10.128;2023-10-13T09:45:31;20.10;97.20
6379;DHT22;3222;48.858;10.128;2023-10-13T09:48:12;20.20;96.90
6379;DHT22;3222;48.858;10.128;2023-10-13T09:50:48;20.30;96.90
6379;DHT22;3222;48.858;10.128;2023-10-13T09:53:14;20.30;97.00
6379;DHT22;3222;48.858;10.128;2023-10-13T09:55:49;20.40;97.00
6379;DHT22;3222;48.858;10.128;2023-10-13T09:58:16;20.40;96.70
6379;DHT22;3222;48.858;10.128;2023-10-13T10:00:57;20.50;96.90
6379;DHT22;3222;48.858;10.128;2023-10-13T10:03:24;20.60;96.80
6379;DHT22;3222;48.858;10.128;2023-10-13T10:06:05;20.60;96.90
6379;DHT22;3222;48.858;10.128;2023-10-13T10:08:44;20.70;96.80
6379;DHT22;3222;48.858;10.128;2023-10-13T10:14:16;20.70;96.90
6379;DHT22;3222;48.858;10.128;2023-10-13T10:16:58;20.80;97.20
6379;DHT22;3222;48.858;10.128;2023-10-13T10:19:26;20.80;97.10
6379;DHT22;3222;48.858;10.128;2023-10-13T10:22:04;20.90;97.30
6379;DHT22;3222;48.858;10.128;2023-10-13T10:24:42;21.00;97.00
6379;DHT22;3222;48.858;10.128;2023-10-13T10:27:09;21.00;97.10
6379;DHT22;3222;48.858;10.128;2023-10-13T10:29:52;21.20;97.20
6379;DHT22;3222;48.858;10.128;2023-10-13T10:32:18;21.20;97.20
6379;DHT22;3222;48.858;10.128;2023-10-13T10:34:44;21.20;97.20
6379;DHT22;3222;48.858;10.128;2023-10-13T10:37:12;21.20;97.40
6379;DHT22;3222;48.858;10.128;2023-10-13T10:39:38;21.20;97.40
6379;DHT22;3222;48.858;10.128;2023-10-13T10:42:14;21.30;97.40
6379;DHT22;3222;48.858;10.128;2023-10-13T10:44:41;21.40;97.10
6379;DHT22;3222;48.858;10.128;2023-10-13T10:47:11;21.30;96.40
6379;DHT22;3222;48.858;10.128;2023-10-13T10:49:40;21.30;95.40
6379;DHT22;3222;48.858;10.128;2023-10-13T10:52:09;21.40;95.70
6379;DHT22;3222;48.858;10.128;2023-10-13T10:54:44;21.30;95.80
6379;DHT22;3222;48.858;10.128;2023-10-13T10:57:17;21.30;95.90
6379;DHT22;3222;48.858;10.128;2023-10-13T10:59:43;21.30;95.80
6379;DHT22;3222;48.858;10.128;2023-10-13T11:02:10;21.30;94.70
6379;DHT22;3222;48.858;10.128;2023-10-13T11:04:41;21.40;95.40
6379;DHT22;3222;48.858;10.128;2023-10-13T11:07:21;21.50;95.20
6379;DHT22;3222;48.858;10.128;2023-10-13T11:09:48;21.50;95.40
6379;DHT22;3222;48.858;10.128;2023-10-13T11:12:18;21.60;95.00
6379;DHT22;3222;48.858;10.128;2023-10-13T11:15:07;21.60;94.90
6379;DHT22;3222;48.858;10.128;2023-10-13T11:17:49;21.60;94.90
6379;DHT22;3222;48.858;10.128;2023-10-13T11:20:22;21.70;94.70
6379;DHT22;3222;48.858;10.128;2023-10-13T11:22:59;21.80;94.40
6379;DHT22;3222;48.858;10.128;2023-10-13T11:25:30;21.80;94.60
6379;DHT22;3222;48.858;10.128;2023-10-13T11:30:35;21.90;94.60
6379;DHT22;3222;48.858;10.128;2023-10-13T11:33:02;22.00;93.90
6379;DHT22;3222;48.858;10.128;2023-10-13T11:35:34;21.90;94.30
6379;DHT22;3222;48.858;10.128;2023-10-13T11:38:25;22.00;94.10
6379;DHT22;3222;48.858;10.128;2023-10-13T11:41:02;22.00;94.20
6379;DHT22;3222;48.858;10.128;2023-10-13T11:43:50;22.10;94.30
6379;DHT22;3222;48.858;10.128;2023-10-13T11:49:10;22.10;93.90
6379;DHT22;3222;48.858;10.128;2023-10-13T11:51:39;22.10;94.50
6379;DHT22;3222;48.858;10.128;2023-10-13T11:54:05;22.20;94.20
6379;DHT22;3222;48.858;10.128;2023-10-13T11:56:30;22.20;94.40
6379;DHT22;3222;48.858;10.128;2023-10-13T11:58:56;22.30;94.40
6379;DHT22;3222;48.858;10.128;2023-10-13T12:01:27;22.20;94.00
6379;DHT22;3222;48.858;10.128;2023-10-13T12:04:11;22.20;94.70
6379;DHT22;3222;48.858;10.128;2023-10-13T12:06:55;22.20;94.50
6379;DHT22;3222;48.858;10.128;2023-10-13T12:09:43;22.20;94.40
6379;DHT22;3222;48.858;10.128;2023-10-13T12:12:21;22.20;94.30
6379;DHT22;3222;48.858;10.128;2023-10-13T12:14:47;22.30;94.20
6379;DHT22;3222;48.858;10.128;2023-10-13T12:17:30;22.30;94.60
6379;DHT22;3222;48.858;10.128;2023-10-13T12:20:06;22.30;94.30
6379;DHT22;3222;48.858;10.128;2023-10-13T12:22:36;22.30;94.60
6379;DHT22;3222;48.858;10.128;2023-10-13T12:25:10;22.40;94.60
6379;DHT22;3222;48.858;10.128;2023-10-13T12:28:00;22.30;94.50
6379;DHT22;3222;48.858;10.128;2023-10-13T12:30:44;22.40;94.30
6379;DHT22;3222;48.858;10.128;2023-10-13T12:33:23;22.50;93.60
6379;DHT22;3222;48.858;10.128;2023-10-13T12:36:00;22.60;93.70
6379;DHT22;3222;48.858;10.128;2023-10-13T12:38:38;22.80;93.60
6379;DHT22;3222;48.858;10.128;2023-10-13T12:41:20;22.90;93.40
6379;DHT22;3222;48.858;10.128;2023-10-13T12:44:05;23.00;93.40
6379;DHT22;3222;48.858;10.128;2023-10-13T12:46:50;23.10;93.40
6379;DHT22;3222;48.858;10.128;2023-10-13T12:49:35;23.20;93.40
6379;DHT22;3222;48.858;10.128;2023-10-13T12:52:13;23.30;93.50
6379;DHT22;3222;48.858;10.128;2023-10-13T12:54:48;23.30;93.60
6379;DHT22;3222;48.858;10.128;2023-10-13T12:57:23;23.50;93.00
6379;DHT22;3222;48.858;10.128;2023-10-13T12:59:49;23.60;92.90
6379;DHT22;3222;48.858;10.128;2023-10-13T13:02:20;23.60;93.30
6379;DHT22;3222;48.858;10.128;2023-10-13T13:04:46;23.60;93.10
6379;DHT22;3222;48.858;10.128;2023-10-13T13:07:16;23.70;93.10
6379;DHT22;3222;48.858;10.128;2023-10-13T13:09:42;23.80;92.30
6379;DHT22;3222;48.858;10.128;2023-10-13T13:12:08;23.90;92.80
6379;DHT22;3222;48.858;10.128;2023-10-13T13:14:38;23.90;92.90
6379;DHT22;3222;48.858;10.128;2023-10-13T13:17:06;24.00;93.00
6379;DHT22;3222;48.858;10.128;2023-10-13T13:19:32;23.90;93.90
6379;DHT22;3222;48.858;10.128;2023-10-13T13:22:02;23.90;94.00
6379;DHT22;3222;48.858;10.128;2023-10-13T13:24:29;23.90;94.10
6379;DHT22;3222;48.858;10.128;2023-10-13T13:26:58;24.00;94.50
6379;DHT22;3222;48.858;10.128;2023-10-13T13:29:30;24.00;94.30
6379;DHT22;3222;48.858;10.128;2023-10-13T13:31:56;24.00;94.20
6379;DHT22;3222;48.858;10.128;2023-10-13T13:34:22;24.20;93.60
6379;DHT22;3222;48.858;10.128;2023-10-13T13:36:48;24.30;92.90
6379;DHT22;3222;48.858;10.128;2023-10-13T13:39:21;24.20;93.40
6379;DHT22;3222;48.858;10.128;2023-10-13T13:41:56;24.20;93.10
6379;DHT22;3222;48.858;10.128;2023-10-13T13:44:25;24.30;92.40
6379;DHT22;3222;48.858;10.128;2023-10-13T13:47:01;24.30;93.40
6379;DHT22;3222;48.858;10.128;2023-10-13T13:49:38;24.20;92.50
6379;DHT22;3222;48.858;10.128;2023-10-13T13:52:06;24.30;92.50
6379;DHT22;3222;48.858;10.128;2023-10-13T13:54:33;24.50;92.20
6379;DHT22;3222;48.858;10.128;2023-10-13T13:56:58;24.30;91.80
6379;DHT22;3222;48.858;10.128;2023-10-13T13:59:24;24.30;92.90
6379;DHT22;3222;48.858;10.128;2023-10-13T14:01:50;24.30;93.10
6379;DHT22;3222;48.858;10.128;2023-10-13T14:04:18;24.40;93.00
6379;DHT22;3222;48.858;10.128;2023-10-13T14:06:45;24.50;92.70
6379;DHT22;3222;48.858;10.128;2023-10-13T14:09:11;24.50;92.50
6379;DHT22;3222;48.858;10.128;2023-10-13T14:11:41;24.40;92.40
6379;DHT22;3222;48.858;10.128;2023-10-13T14:14:30;24.40;92.80
6379;DHT22;3222;48.858;10.128;2023-10-13T14:16:59;24.30;92.80
6379;DHT22;3222;48.858;10.128;2023-10-13T14:19:32;24.40;92.70
6379;DHT22;3222;48.858;10.128;2023-10-13T14:21:59;24.40;92.40
6379;DHT22;3222;48.858;10.128;2023-10-13T14:24:26;24.60;92.40
6379;DHT22;3222;48.858;10.128;2023-10-13T14:26:59;24.60;92.20
6379;DHT22;3222;48.858;10.128;2023-10-13T14:29:33;24.60;91.40
6379;DHT22;3222;48.858;10.128;2023-10-13T14:31:59;24.50;91.60
6379;DHT22;3222;48.858;10.128;2023-10-13T14:34:25;24.50;92.10
6379;DHT22;3222;48.858;10.128;2023-10-13T14:36:52;24.50;92.00
6379;DHT22;3222;48.858;10.128;2023-10-13T14:39:20;24.50;91.70
6379;DHT22;3222;48.858;10.128;2023-10-13T14:41:49;24.50;91.50
6379;DHT22;3222;48.858;10.128;2023-10-13T14:44:15;24.50;91.40
6379;DHT22;3222;48.858;10.128;2023-10-13T14:46:40;24.30;91.90
6379;DHT22;3222;48.858;10.128;2023-10-13T14:49:06;24.20;92.10
6379;DHT22;3222;48.858;10.128;2023-10-13T14:51:32;24.30;92.30
6379;DHT22;3222;48.858;10.128;2023-10-13T14:53:59;24.30;92.10
6379;DHT22;3222;48.858;10.128;2023-10-13T14:56:29;24.30;92.10
6379;DHT22;3222;48.858;10.128;2023-10-13T14:58:55;24.30;92.30
6379;DHT22;3222;48.858;10.128;2023-10-13T15:01:22;24.30;92.40
6379;DHT22;3222;48.858;10.128;2023-10-13T15:03:53;24.20;92.20
6379;DHT22;3222;48.858;10.128;2023-10-13T15:06:24;24.20;92.20
6379;DHT22;3222;48.858;10.128;2023-10-13T15:08:51;24.20;92.50
6379;DHT22;3222;48.858;10.128;2023-10-13T15:11:20;24.20;92.40
6379;DHT22;3222;48.858;10.128;2023-10-13T15:13:46;24.30;92.50
6379;DHT22;3222;48.858;10.128;2023-10-13T15:16:17;24.40;92.20
6379;DHT22;3222;48.858;10.128;2023-10-13T15:18:47;24.50;91.40
6379;DHT22;3222;48.858;10.128;2023-10-13T15:21:23;24.40;91.60
6379;DHT22;3222;48.858;10.128;2023-10-13T15:23:52;24.30;91.80
6379;DHT22;3222;48.858;10.128;2023-10-13T15:26:19;24.30;91.80
6379;DHT22;3222;48.858;10.128;2023-10-13T15:28:47;24.40;91.40
6379;DHT22;3222;48.858;10.128;2023-10-13T15:31:24;24.40;91.30
6379;DHT22;3222;48.858;10.128;2023-10-13T15:34:01;24.20;91.10
6379;DHT22;3222;48.858;10.128;2023-10-13T15:36:32;24.20;91.70
6379;DHT22;3222;48.858;10.128;2023-10-13T15:38:58;24.00;91.80
6379;DHT22;3222;48.858;10.128;2023-10-13T15:41:25;24.00;91.90
6379;DHT22;3222;48.858;10.128;2023-10-13T15:43:51;23.80;92.20
6379;DHT22;3222;48.858;10.128;2023-10-13T15:46:19;23.80;92.50
6379;DHT22;3222;48.858;10.128;2023-10-13T15:48:52;23.80;92.70
6379;DHT22;3222;48.858;10.128;2023-10-13T15:51:18;23.80;92.90
6379;DHT22;3222;48.858;10.128;2023-10-13T15:53:44;23.70;92.80
6379;DHT22;3222;48.858;10.128;2023-10-13T15:56:13;23.50;93.00
6379;DHT22;3222;48.858;10.128;2023-10-13T15:58:48;23.50;93.00
6379;DHT22;3222;48.858;10.128;2023-10-13T16:01:16;23.40;93.10
6379;DHT22;3222;48.858;10.128;2023-10-13T16:03:43;23.50;92.90
6379;DHT22;3222;48.858;10.128;2023-10-13T16:06:13;23.40;92.90
6379;DHT22;3222;48.858;10.128;2023-10-13T16:08:39;23.30;93.10
6379;DHT22;3222;48.858;10.128;2023-10-13T16:11:12;23.10;93.20
6379;DHT22;3222;48.858;10.128;2023-10-13T16:13:45;23.00;93.40
6379;DHT22;3222;48.858;10.128;2023-10-13T16:16:19;22.90;93.50
6379;DHT22;3222;48.858;10.128;2023-10-13T16:18:52;22.90;93.50
6379;DHT22;3222;48.858;10.128;2023-10-13T16:21:19;22.80;93.30
6379;DHT22;3222;48.858;10.128;2023-10-13T16:23:47;22.60;93.50
6379;DHT22;3222;48.858;10.128;2023-10-13T16:26:20;22.50;93.70
6379;DHT22;3222;48.858;10.128;2023-10-13T16:28:48;22.60;93.80
6379;DHT22;3222;48.858;10.128;2023-10-13T16:31:14;22.50;93.80
6379;DHT22;3222;48.858;10.128;2023-10-13T16:33:40;22.40;94.00
6379;DHT22;3222;48.858;10.128;2023-10-13T16:36:06;22.30;94.10
6379;DHT22;3222;48.858;10.128;2023-10-13T16:38:35;22.20;94.10